sensor_id;sensor_type;location;lat;lon;timestamp;pressure;altitude;pressure_sealevel;temperature;humidity
31044;BME280;17710;52.520;13.352;2023-03-25T00:01:29;99971.00;;;14.28;56.14
31044;BME280;17710;52.520;13.352;2023-03-25T00:03:58;99976.22;;;14.30;56.15
31044;BME280;17710;52.520;13.352;2023-03-25T00:06:25;99976.41;;;14.13;56.52
31044;BME280;17710;52.520;13.352;2023-03-25T00:08:52;99977.47;;;14.10;56.75
31044;BME280;17710;52.520;13.352;2023-03-25T00:11:18;99971.09;;;14.13;56.97
31044;BME280;17710;52.520;13.352;2023-03-25T00:13:45;99975.06;;;13.91;57.64
31044;BME280;17710;52.520;13.352;2023-03-25T00:16:13;99959.72;;;13.96;57.89
31044;BME280;17710;52.520;13.352;2023-03-25T00:18:40;99966.34;;;13.89;58.07
31044;BME280;17710;52.520;13.352;2023-03-25T00:21:08;99960.47;;;13.98;57.67
31044;BME280;17710;52.520;13.352;2023-03-25T00:23:36;99957.53;;;13.89;58.21
31044;BME280;17710;52.520;13.352;2023-03-25T00:26:03;99952.69;;;13.81;58.41
31044;BME280;17710;52.520;13.352;2023-03-25T00:28:32;99953.72;;;13.79;58.87
31044;BME280;17710;52.520;13.352;2023-03-25T00:30:59;99956.69;;;13.88;58.54
31044;BME280;17710;52.520;13.352;2023-03-25T00:33:29;99956.66;;;13.74;59.09
31044;BME280;17710;52.520;13.352;2023-03-25T00:35:57;99953.72;;;13.79;58.95
31044;BME280;17710;52.520;13.352;2023-03-25T00:38:27;99961.59;;;13.80;58.76
31044;BME280;17710;52.520;13.352;2023-03-25T00:41:06;99962.91;;;13.73;58.94
31044;BME280;17710;52.520;13.352;2023-03-25T00:43:32;99963.31;;;13.95;58.23
31044;BME280;17710;52.520;13.352;2023-03-25T00:45:59;99962.19;;;13.71;59.26
31044;BME280;17710;52.520;13.352;2023-03-25T00:48:26;99970.69;;;13.62;59.60
31044;BME280;17710;52.520;13.352;2023-03-25T00:50:53;99963.75;;;13.60;59.56
31044;BME280;17710;52.520;13.352;2023-03-25T00:53:20;99969.09;;;13.88;58.89
31044;BME280;17710;52.520;13.352;2023-03-25T00:55:48;99977.34;;;13.69;59.19
31044;BME280;17710;52.520;13.352;2023-03-25T00:58:15;99970.47;;;13.51;60.21
31044;BME280;17710;52.520;13.352;2023-03-25T01:00:41;99976.28;;;13.57;59.75
31044;BME280;17710;52.520;13.352;2023-03-25T01:03:08;99978.03;;;13.43;60.22
31044;BME280;17710;52.520;13.352;2023-03-25T01:05:34;99980.00;;;13.25;61.06
31044;BME280;17710;52.520;13.352;2023-03-25T01:08:00;99973.66;;;13.42;60.51
31044;BME280;17710;52.520;13.352;2023-03-25T01:10:27;99968.94;;;13.47;60.50
31044;BME280;17710;52.520;13.352;2023-03-25T01:12:55;99971.88;;;13.42;60.41
31044;BME280;17710;52.520;13.352;2023-03-25T01:15:21;99978.44;;;13.51;60.19
31044;BME280;17710;52.520;13.352;2023-03-25T01:17:48;99977.91;;;13.30;60.62
31044;BME280;17710;52.520;13.352;2023-03-25T01:20:15;99975.56;;;13.40;60.69
31044;BME280;17710;52.520;13.352;2023-03-25T01:22:41;99962.06;;;13.59;59.81
31044;BME280;17710;52.520;13.352;2023-03-25T01:25:08;99961.44;;;13.39;60.19
31044;BME280;17710;52.520;13.352;2023-03-25T01:27:34;99955.63;;;13.33;60.77
31044;BME280;17710;52.520;13.352;2023-03-25T01:30:03;99948.66;;;13.46;60.39
31044;BME280;17710;52.520;13.352;2023-03-25T01:32:29;99953.00;;;13.47;60.22
31044;BME280;17710;52.520;13.352;2023-03-25T01:34:56;99952.06;;;13.48;60.09
31044;BME280;17710;52.520;13.352;2023-03-25T01:37:22;99941.25;;;13.37;60.34
31044;BME280;17710;52.520;13.352;2023-03-25T01:39:49;99943.09;;;13.50;59.97
31044;BME280;17710;52.520;13.352;2023-03-25T01:42:16;99935.66;;;13.41;60.22
31044;BME280;17710;52.520;13.352;2023-03-25T01:45:15;99933.69;;;13.59;59.66
31044;BME280;17710;52.520;13.352;2023-03-25T01:47:44;99929.81;;;13.50;60.00
31044;BME280;17710;52.520;13.352;2023-03-25T01:50:12;99925.38;;;13.51;59.68
31044;BME280;17710;52.520;13.352;2023-03-25T01:52:41;99919.94;;;13.38;60.09
31044;BME280;17710;52.520;13.352;2023-03-25T01:55:09;99927.91;;;13.52;59.36
31044;BME280;17710;52.520;13.352;2023-03-25T01:57:38;99928.16;;;13.34;60.25
31044;BME280;17710;52.520;13.352;2023-03-25T02:00:09;99927.28;;;13.33;60.17
31044;BME280;17710;52.520;13.352;2023-03-25T02:02:37;99931.63;;;13.50;59.82
31044;BME280;17710;52.520;13.352;2023-03-25T02:05:06;99922.50;;;13.54;59.62
31044;BME280;17710;52.520;13.352;2023-03-25T02:07:38;99926.69;;;13.44;60.02
31044;BME280;17710;52.520;13.352;2023-03-25T02:10:08;99915.00;;;13.46;59.88
31044;BME280;17710;52.520;13.352;2023-03-25T02:12:35;99908.97;;;13.59;59.37
31044;BME280;17710;52.520;13.352;2023-03-25T02:15:04;99910.88;;;13.56;59.68
31044;BME280;17710;52.520;13.352;2023-03-25T02:17:39;99909.72;;;13.61;59.57
31044;BME280;17710;52.520;13.352;2023-03-25T02:20:23;99907.75;;;13.64;59.21
31044;BME280;17710;52.520;13.352;2023-03-25T02:23:16;99898.63;;;13.68;59.39
31044;BME280;17710;52.520;13.352;2023-03-25T02:29:06;99894.72;;;13.60;59.69
31044;BME280;17710;52.520;13.352;2023-03-25T02:31:53;99898.63;;;13.68;59.77
31044;BME280;17710;52.520;13.352;2023-03-25T02:34:44;99898.44;;;13.57;59.78
31044;BME280;17710;52.520;13.352;2023-03-25T02:37:53;99892.44;;;13.53;59.97
31044;BME280;17710;52.520;13.352;2023-03-25T02:40:33;99879.19;;;13.53;59.73
31044;BME280;17710;52.520;13.352;2023-03-25T02:43:04;99875.97;;;13.63;59.66
31044;BME280;17710;52.520;13.352;2023-03-25T02:45:39;99871.91;;;13.57;59.76
31044;BME280;17710;52.520;13.352;2023-03-25T02:48:11;99864.50;;;13.76;59.12
31044;BME280;17710;52.520;13.352;2023-03-25T02:50:42;99872.84;;;13.56;59.77
31044;BME280;17710;52.520;13.352;2023-03-25T02:53:16;99869.59;;;13.79;58.95
31044;BME280;17710;52.520;13.352;2023-03-25T02:55:46;99869.16;;;13.59;59.49
31044;BME280;17710;52.520;13.352;2023-03-25T02:58:16;99867.44;;;13.72;59.30
31044;BME280;17710;52.520;13.352;2023-03-25T03:00:47;99867.63;;;13.69;59.27
31044;BME280;17710;52.520;13.352;2023-03-25T03:03:14;99863.72;;;13.60;59.57
31044;BME280;17710;52.520;13.352;2023-03-25T03:05:42;99862.09;;;13.86;58.53
31044;BME280;17710;52.520;13.352;2023-03-25T03:08:23;99865.63;;;13.72;59.09
31044;BME280;17710;52.520;13.352;2023-03-25T03:11:00;99857.00;;;13.97;58.56
31044;BME280;17710;52.520;13.352;2023-03-25T03:13:37;99855.47;;;13.93;58.30
31044;BME280;17710;52.520;13.352;2023-03-25T03:16:08;99867.41;;;13.86;58.52
31044;BME280;17710;52.520;13.352;2023-03-25T03:18:43;99865.81;;;13.98;58.42
31044;BME280;17710;52.520;13.352;2023-03-25T03:21:17;99874.91;;;13.79;59.30
31044;BME280;17710;52.520;13.352;2023-03-25T03:23:55;99871.53;;;13.77;60.00
31044;BME280;17710;52.520;13.352;2023-03-25T03:26:28;99876.72;;;13.79;60.67
31044;BME280;17710;52.520;13.352;2023-03-25T03:29:03;99880.81;;;13.84;60.68
31044;BME280;17710;52.520;13.352;2023-03-25T03:31:35;99873.97;;;13.66;61.58
31044;BME280;17710;52.520;13.352;2023-03-25T03:34:07;99871.69;;;13.74;61.93
31044;BME280;17710;52.520;13.352;2023-03-25T03:36:39;99876.91;;;13.90;61.59
31044;BME280;17710;52.520;13.352;2023-03-25T03:39:11;99877.69;;;13.64;62.48
31044;BME280;17710;52.520;13.352;2023-03-25T03:41:42;99880.53;;;13.75;62.56
31044;BME280;17710;52.520;13.352;2023-03-25T03:44:13;99882.16;;;13.77;62.52
31044;BME280;17710;52.520;13.352;2023-03-25T03:46:42;99882.78;;;13.67;63.03
31044;BME280;17710;52.520;13.352;2023-03-25T03:49:14;99895.03;;;13.55;63.64
31044;BME280;17710;52.520;13.352;2023-03-25T03:51:45;99886.03;;;13.57;64.14
31044;BME280;17710;52.520;13.352;2023-03-25T03:54:19;99879.28;;;13.66;64.46
31044;BME280;17710;52.520;13.352;2023-03-25T03:56:51;99876.38;;;13.71;64.48
31044;BME280;17710;52.520;13.352;2023-03-25T03:59:23;99873.31;;;13.77;64.53
31044;BME280;17710;52.520;13.352;2023-03-25T04:01:57;99872.00;;;13.55;64.86
31044;BME280;17710;52.520;13.352;2023-03-25T04:04:25;99864.13;;;13.54;65.42
31044;BME280;17710;52.520;13.352;2023-03-25T04:06:56;99864.97;;;13.54;65.32
31044;BME280;17710;52.520;13.352;2023-03-25T04:09:27;99862.03;;;13.59;65.26
31044;BME280;17710;52.520;13.352;2023-03-25T04:11:59;99866.50;;;13.59;65.40
31044;BME280;17710;52.520;13.352;2023-03-25T04:14:28;99866.59;;;13.71;65.18
31044;BME280;17710;52.520;13.352;2023-03-25T04:16:55;99868.75;;;13.79;64.78
31044;BME280;17710;52.520;13.352;2023-03-25T04:19:24;99865.16;;;13.94;64.16
31044;BME280;17710;52.520;13.352;2023-03-25T04:21:50;99874.53;;;14.00;63.86
31044;BME280;17710;52.520;13.352;2023-03-25T04:24:18;99866.09;;;13.93;63.83
31044;BME280;17710;52.520;13.352;2023-03-25T04:26:46;99869.34;;;13.84;64.36
31044;BME280;17710;52.520;13.352;2023-03-25T04:29:13;99865.81;;;13.83;63.44
31044;BME280;17710;52.520;13.352;2023-03-25T04:31:40;99877.78;;;13.76;63.71
31044;BME280;17710;52.520;13.352;2023-03-25T04:34:11;99877.00;;;13.74;64.18
31044;BME280;17710;52.520;13.352;2023-03-25T04:36:39;99875.03;;;13.78;63.82
31044;BME280;17710;52.520;13.352;2023-03-25T04:39:07;99864.50;;;13.76;63.93
31044;BME280;17710;52.520;13.352;2023-03-25T04:41:34;99871.41;;;13.79;63.26
31044;BME280;17710;52.520;13.352;2023-03-25T04:44:02;99868.69;;;13.52;64.20
31044;BME280;17710;52.520;13.352;2023-03-25T04:46:31;99877.19;;;13.29;65.23
31044;BME280;17710;52.520;13.352;2023-03-25T04:48:58;99872.16;;;13.52;64.57
31044;BME280;17710;52.520;13.352;2023-03-25T04:51:27;99866.22;;;13.63;63.87
31044;BME280;17710;52.520;13.352;2023-03-25T04:53:55;99869.34;;;13.55;63.99
31044;BME280;17710;52.520;13.352;2023-03-25T04:56:21;99868.56;;;13.68;63.43
31044;BME280;17710;52.520;13.352;2023-03-25T04:58:47;99866.69;;;13.55;63.65
31044;BME280;17710;52.520;13.352;2023-03-25T05:01:21;99869.81;;;13.62;63.66
31044;BME280;17710;52.520;13.352;2023-03-25T05:03:48;99872.38;;;13.49;63.49
31044;BME280;17710;52.520;13.352;2023-03-25T05:06:15;99878.53;;;13.50;63.46
31044;BME280;17710;52.520;13.352;2023-03-25T05:08:42;99869.50;;;13.52;63.61
31044;BME280;17710;52.520;13.352;2023-03-25T05:11:08;99866.31;;;13.62;62.88
31044;BME280;17710;52.520;13.352;2023-03-25T05:13:35;99871.81;;;13.59;62.91
31044;BME280;17710;52.520;13.352;2023-03-25T05:16:01;99868.97;;;13.62;63.19
31044;BME280;17710;52.520;13.352;2023-03-25T05:18:29;99859.75;;;13.67;62.64
31044;BME280;17710;52.520;13.352;2023-03-25T05:20:56;99865.06;;;13.67;62.62
31044;BME280;17710;52.520;13.352;2023-03-25T05:23:25;99862.22;;;13.56;62.88
31044;BME280;17710;52.520;13.352;2023-03-25T05:25:51;99868.19;;;13.60;62.37
31044;BME280;17710;52.520;13.352;2023-03-25T05:28:18;99868.09;;;13.61;62.29
31044;BME280;17710;52.520;13.352;2023-03-25T05:30:45;99863.94;;;13.57;62.46
31044;BME280;17710;52.520;13.352;2023-03-25T05:33:14;99865.75;;;13.56;62.28
31044;BME280;17710;52.520;13.352;2023-03-25T05:35:42;99861.28;;;13.57;62.70
31044;BME280;17710;52.520;13.352;2023-03-25T05:38:10;99862.78;;;13.61;61.90
31044;BME280;17710;52.520;13.352;2023-03-25T05:40:38;99866.22;;;13.77;61.68
31044;BME280;17710;52.520;13.352;2023-03-25T05:43:06;99865.53;;;13.88;61.11
31044;BME280;17710;52.520;13.352;2023-03-25T05:45:32;99862.00;;;14.02;60.63
31044;BME280;17710;52.520;13.352;2023-03-25T05:48:00;99868.78;;;14.20;60.01
31044;BME280;17710;52.520;13.352;2023-03-25T05:50:26;99873.09;;;13.94;60.56
31044;BME280;17710;52.520;13.352;2023-03-25T05:52:54;99887.53;;;13.90;60.47
31044;BME280;17710;52.520;13.352;2023-03-25T05:55:22;99874.81;;;13.67;61.02
31044;BME280;17710;52.520;13.352;2023-03-25T05:57:49;99880.44;;;13.90;60.40
31044;BME280;17710;52.520;13.352;2023-03-25T06:00:17;99884.59;;;13.80;60.25
31044;BME280;17710;52.520;13.352;2023-03-25T06:02:46;99884.41;;;13.55;60.95
31044;BME280;17710;52.520;13.352;2023-03-25T06:05:14;99889.81;;;13.53;60.49
31044;BME280;17710;52.520;13.352;2023-03-25T06:07:41;99883.66;;;13.67;60.75
31044;BME280;17710;52.520;13.352;2023-03-25T06:10:10;99894.13;;;14.11;59.22
31044;BME280;17710;52.520;13.352;2023-03-25T06:12:37;99886.31;;;13.95;58.59
31044;BME280;17710;52.520;13.352;2023-03-25T06:15:06;99895.59;;;13.88;58.88
31044;BME280;17710;52.520;13.352;2023-03-25T06:17:32;99895.22;;;13.80;60.00
31044;BME280;17710;52.520;13.352;2023-03-25T06:20:03;99898.56;;;13.84;59.30
31044;BME280;17710;52.520;13.352;2023-03-25T06:22:36;99901.59;;;13.78;59.15
31044;BME280;17710;52.520;13.352;2023-03-25T06:25:06;99903.94;;;13.82;58.67
31044;BME280;17710;52.520;13.352;2023-03-25T06:27:35;99913.81;;;13.94;58.74
31044;BME280;17710;52.520;13.352;2023-03-25T06:30:07;99910.28;;;13.66;59.26
31044;BME280;17710;52.520;13.352;2023-03-25T06:32:33;99907.16;;;13.59;59.44
31044;BME280;17710;52.520;13.352;2023-03-25T06:35:00;99904.66;;;13.42;60.09
31044;BME280;17710;52.520;13.352;2023-03-25T06:37:26;99917.97;;;13.70;59.29
31044;BME280;17710;52.520;13.352;2023-03-25T06:39:53;99910.75;;;13.86;58.68
31044;BME280;17710;52.520;13.352;2023-03-25T06:42:21;99907.81;;;14.05;58.09
31044;BME280;17710;52.520;13.352;2023-03-25T06:44:48;99909.25;;;13.68;58.84
31044;BME280;17710;52.520;13.352;2023-03-25T06:47:15;99908.19;;;13.99;58.26
31044;BME280;17710;52.520;13.352;2023-03-25T06:49:41;99901.53;;;14.20;57.63
31044;BME280;17710;52.520;13.352;2023-03-25T06:52:08;99901.69;;;14.31;57.11
31044;BME280;17710;52.520;13.352;2023-03-25T06:54:36;99896.97;;;14.36;56.55
31044;BME280;17710;52.520;13.352;2023-03-25T06:57:02;99898.66;;;14.38;57.12
31044;BME280;17710;52.520;13.352;2023-03-25T06:59:29;99898.09;;;14.47;56.32
31044;BME280;17710;52.520;13.352;2023-03-25T07:01:57;99902.31;;;14.63;56.05
31044;BME280;17710;52.520;13.352;2023-03-25T07:04:23;99903.28;;;14.62;55.42
31044;BME280;17710;52.520;13.352;2023-03-25T07:06:50;99901.50;;;14.49;55.82
31044;BME280;17710;52.520;13.352;2023-03-25T07:09:17;99906.53;;;14.25;56.43
31044;BME280;17710;52.520;13.352;2023-03-25T07:11:44;99910.66;;;14.57;55.89
31044;BME280;17710;52.520;13.352;2023-03-25T07:14:10;99909.13;;;14.67;55.33
31044;BME280;17710;52.520;13.352;2023-03-25T07:16:37;99911.53;;;14.85;55.31
31044;BME280;17710;52.520;13.352;2023-03-25T07:19:04;99914.34;;;14.96;54.06
31044;BME280;17710;52.520;13.352;2023-03-25T07:21:31;99918.53;;;15.12;54.04
31044;BME280;17710;52.520;13.352;2023-03-25T07:23:57;99916.84;;;15.24;53.56
31044;BME280;17710;52.520;13.352;2023-03-25T07:26:23;99910.75;;;14.70;54.35
31044;BME280;17710;52.520;13.352;2023-03-25T07:28:50;99914.69;;;15.16;53.44
31044;BME280;17710;52.520;13.352;2023-03-25T07:31:16;99919.38;;;15.52;52.47
31044;BME280;17710;52.520;13.352;2023-03-25T07:33:48;99913.28;;;15.63;51.78
31044;BME280;17710;52.520;13.352;2023-03-25T07:36:17;99930.97;;;15.77;51.18
31044;BME280;17710;52.520;13.352;2023-03-25T07:38:46;99926.69;;;16.12;50.26
31044;BME280;17710;52.520;13.352;2023-03-25T07:41:12;99925.22;;;15.83;49.67
31044;BME280;17710;52.520;13.352;2023-03-25T07:43:39;99923.75;;;15.79;50.30
31044;BME280;17710;52.520;13.352;2023-03-25T07:46:06;99932.53;;;16.17;49.41
31044;BME280;17710;52.520;13.352;2023-03-25T07:48:32;99922.88;;;15.91;49.25
31044;BME280;17710;52.520;13.352;2023-03-25T07:50:58;99919.22;;;15.29;50.51
31044;BME280;17710;52.520;13.352;2023-03-25T07:53:26;99925.06;;;15.21;50.80
31044;BME280;17710;52.520;13.352;2023-03-25T07:55:53;99927.50;;;15.37;50.54
31044;BME280;17710;52.520;13.352;2023-03-25T07:58:19;99935.34;;;15.65;49.19
31044;BME280;17710;52.520;13.352;2023-03-25T08:00:46;99923.13;;;15.88;48.42
31044;BME280;17710;52.520;13.352;2023-03-25T08:03:13;99929.03;;;16.04;48.13
31044;BME280;17710;52.520;13.352;2023-03-25T08:05:44;99933.53;;;15.66;48.77
31044;BME280;17710;52.520;13.352;2023-03-25T08:08:10;99937.72;;;15.30;48.07
31044;BME280;17710;52.520;13.352;2023-03-25T08:10:40;99922.22;;;14.70;50.30
31044;BME280;17710;52.520;13.352;2023-03-25T08:13:08;99921.47;;;15.35;48.87
31044;BME280;17710;52.520;13.352;2023-03-25T08:15:34;99918.31;;;15.80;47.92
31044;BME280;17710;52.520;13.352;2023-03-25T08:18:01;99933.53;;;15.78;47.79
31044;BME280;17710;52.520;13.352;2023-03-25T08:20:29;99925.44;;;15.54;47.82
31044;BME280;17710;52.520;13.352;2023-03-25T08:22:56;99933.13;;;15.72;47.49
31044;BME280;17710;52.520;13.352;2023-03-25T08:25:22;99918.59;;;15.50;47.96
31044;BME280;17710;52.520;13.352;2023-03-25T08:27:50;99926.84;;;15.85;46.99
31044;BME280;17710;52.520;13.352;2023-03-25T08:30:17;99919.16;;;16.06;46.64
31044;BME280;17710;52.520;13.352;2023-03-25T08:32:44;99924.41;;;16.31;45.98
31044;BME280;17710;52.520;13.352;2023-03-25T08:35:12;99925.53;;;15.91;46.00
31044;BME280;17710;52.520;13.352;2023-03-25T08:37:38;99923.72;;;16.04;45.94
31044;BME280;17710;52.520;13.352;2023-03-25T08:40:06;99930.97;;;15.89;46.21
31044;BME280;17710;52.520;13.352;2023-03-25T08:42:34;99925.94;;;16.10;45.75
31044;BME280;17710;52.520;13.352;2023-03-25T08:45:03;99919.00;;;16.57;44.89
31044;BME280;17710;52.520;13.352;2023-03-25T08:47:30;99917.28;;;16.56;44.81
31044;BME280;17710;52.520;13.352;2023-03-25T08:49:57;99907.59;;;16.55;44.81
31044;BME280;17710;52.520;13.352;2023-03-25T08:52:23;99911.84;;;16.57;44.78
31044;BME280;17710;52.520;13.352;2023-03-25T08:54:50;99926.38;;;16.53;44.67
31044;BME280;17710;52.520;13.352;2023-03-25T08:57:17;99911.09;;;16.92;44.17
31044;BME280;17710;52.520;13.352;2023-03-25T08:59:43;99908.50;;;17.14;43.39
31044;BME280;17710;52.520;13.352;2023-03-25T09:02:11;99914.56;;;17.05;43.31
31044;BME280;17710;52.520;13.352;2023-03-25T09:04:38;99917.69;;;16.99;43.50
31044;BME280;17710;52.520;13.352;2023-03-25T09:07:05;99921.06;;;17.01;43.00
31044;BME280;17710;52.520;13.352;2023-03-25T09:09:35;99922.00;;;17.12;42.77
31044;BME280;17710;52.520;13.352;2023-03-25T09:12:03;99918.06;;;17.05;42.08
31044;BME280;17710;52.520;13.352;2023-03-25T09:14:30;99906.22;;;16.49;43.00
31044;BME280;17710;52.520;13.352;2023-03-25T09:16:57;99919.88;;;15.83;44.43
31044;BME280;17710;52.520;13.352;2023-03-25T09:19:24;99913.41;;;15.87;44.24
31044;BME280;17710;52.520;13.352;2023-03-25T09:21:51;99916.28;;;16.46;43.33
31044;BME280;17710;52.520;13.352;2023-03-25T09:24:17;99906.72;;;16.30;43.37
31044;BME280;17710;52.520;13.352;2023-03-25T09:26:47;99917.75;;;16.13;44.13
31044;BME280;17710;52.520;13.352;2023-03-25T09:29:13;99921.91;;;16.05;44.44
31044;BME280;17710;52.520;13.352;2023-03-25T09:31:39;99930.78;;;15.54;45.28
31044;BME280;17710;52.520;13.352;2023-03-25T09:34:06;99927.66;;;15.48;45.82
31044;BME280;17710;52.520;13.352;2023-03-25T09:36:34;99937.41;;;15.74;45.18
31044;BME280;17710;52.520;13.352;2023-03-25T09:39:01;99926.84;;;15.73;44.92
31044;BME280;17710;52.520;13.352;2023-03-25T09:41:40;99941.88;;;15.74;44.82
31044;BME280;17710;52.520;13.352;2023-03-25T09:44:15;99938.00;;;15.78;44.26
31044;BME280;17710;52.520;13.352;2023-03-25T09:46:44;99927.31;;;16.16;43.93
31044;BME280;17710;52.520;13.352;2023-03-25T09:49:13;99932.91;;;16.00;43.03
31044;BME280;17710;52.520;13.352;2023-03-25T09:51:43;99919.75;;;16.10;43.05
31044;BME280;17710;52.520;13.352;2023-03-25T09:54:17;99924.63;;;16.28;43.47
31044;BME280;17710;52.520;13.352;2023-03-25T09:56:46;99923.34;;;16.70;42.15
31044;BME280;17710;52.520;13.352;2023-03-25T09:59:16;99919.31;;;17.12;41.40
31044;BME280;17710;52.520;13.352;2023-03-25T10:01:48;99934.38;;;16.53;41.69
31044;BME280;17710;52.520;13.352;2023-03-25T10:04:34;99927.22;;;16.17;42.17
31044;BME280;17710;52.520;13.352;2023-03-25T10:07:18;99912.00;;;16.07;42.14
31044;BME280;17710;52.520;13.352;2023-03-25T10:09:52;99925.75;;;16.13;42.16
31044;BME280;17710;52.520;13.352;2023-03-25T10:12:31;99935.00;;;16.20;42.16
31044;BME280;17710;52.520;13.352;2023-03-25T10:15:10;99930.88;;;15.66;43.08
31044;BME280;17710;52.520;13.352;2023-03-25T10:17:47;99925.88;;;15.86;42.67
31044;BME280;17710;52.520;13.352;2023-03-25T10:20:24;99922.03;;;15.65;42.96
31044;BME280;17710;52.520;13.352;2023-03-25T10:23:04;99919.28;;;15.67;43.22
31044;BME280;17710;52.520;13.352;2023-03-25T10:25:35;99924.38;;;16.08;42.44
31044;BME280;17710;52.520;13.352;2023-03-25T10:28:06;99925.72;;;16.26;41.83
31044;BME280;17710;52.520;13.352;2023-03-25T10:30:44;99896.63;;;16.83;41.19
31044;BME280;17710;52.520;13.352;2023-03-25T10:33:15;99900.03;;;17.20;40.36
31044;BME280;17710;52.520;13.352;2023-03-25T10:35:46;99904.38;;;17.45;40.07
31044;BME280;17710;52.520;13.352;2023-03-25T10:38:16;99913.06;;;17.93;38.23
31044;BME280;17710;52.520;13.352;2023-03-25T10:40:46;99904.22;;;18.04;38.13
31044;BME280;17710;52.520;13.352;2023-03-25T10:43:18;99901.38;;;18.27;37.69
31044;BME280;17710;52.520;13.352;2023-03-25T10:45:47;99903.59;;;17.78;37.93
31044;BME280;17710;52.520;13.352;2023-03-25T10:48:23;99909.03;;;17.99;38.12
31044;BME280;17710;52.520;13.352;2023-03-25T10:50:51;99910.19;;;17.50;38.52
31044;BME280;17710;52.520;13.352;2023-03-25T10:53:25;99905.91;;;17.01;39.59
31044;BME280;17710;52.520;13.352;2023-03-25T10:55:55;99904.97;;;17.13;39.14
31044;BME280;17710;52.520;13.352;2023-03-25T10:58:25;99902.38;;;17.82;38.77
31044;BME280;17710;52.520;13.352;2023-03-25T11:00:52;99898.00;;;17.70;38.58
31044;BME280;17710;52.520;13.352;2023-03-25T11:03:22;99895.69;;;17.87;37.82
31044;BME280;17710;52.520;13.352;2023-03-25T11:05:50;99883.59;;;17.48;38.80
31044;BME280;17710;52.520;13.352;2023-03-25T11:08:19;99903.16;;;17.14;39.42
31044;BME280;17710;52.520;13.352;2023-03-25T11:10:49;99889.28;;;16.74;40.43
31044;BME280;17710;52.520;13.352;2023-03-25T11:13:23;99890.78;;;16.42;41.24
31044;BME280;17710;52.520;13.352;2023-03-25T11:15:51;99890.00;;;16.52;41.50
31044;BME280;17710;52.520;13.352;2023-03-25T11:18:21;99885.84;;;17.20;40.46
31044;BME280;17710;52.520;13.352;2023-03-25T11:20:51;99879.66;;;17.87;39.35
31044;BME280;17710;52.520;13.352;2023-03-25T11:23:26;99873.28;;;17.44;38.96
31044;BME280;17710;52.520;13.352;2023-03-25T11:25:54;99876.31;;;17.50;39.12
31044;BME280;17710;52.520;13.352;2023-03-25T11:28:25;99879.28;;;17.81;38.81
31044;BME280;17710;52.520;13.352;2023-03-25T11:31:09;99886.44;;;17.80;38.96
31044;BME280;17710;52.520;13.352;2023-03-25T11:33:36;99906.66;;;17.49;39.87
31044;BME280;17710;52.520;13.352;2023-03-25T11:36:11;99897.31;;;17.44;41.44
31044;BME280;17710;52.520;13.352;2023-03-25T11:38:39;99892.03;;;17.66;41.58
31044;BME280;17710;52.520;13.352;2023-03-25T11:41:06;99901.81;;;17.54;41.67
31044;BME280;17710;52.520;13.352;2023-03-25T11:43:35;99890.19;;;17.21;41.86
31044;BME280;17710;52.520;13.352;2023-03-25T11:46:07;99893.81;;;17.08;42.28
31044;BME280;17710;52.520;13.352;2023-03-25T11:48:38;99884.44;;;17.38;42.51
31044;BME280;17710;52.520;13.352;2023-03-25T11:51:11;99884.00;;;17.66;43.22
31044;BME280;17710;52.520;13.352;2023-03-25T11:53:43;99872.00;;;17.94;43.58
31044;BME280;17710;52.520;13.352;2023-03-25T11:56:14;99874.53;;;17.73;44.57
31044;BME280;17710;52.520;13.352;2023-03-25T11:58:45;99866.41;;;17.86;43.35
31044;BME280;17710;52.520;13.352;2023-03-25T12:01:20;99862.03;;;17.96;40.06
31044;BME280;17710;52.520;13.352;2023-03-25T12:03:49;99855.13;;;17.82;39.79
31044;BME280;17710;52.520;13.352;2023-03-25T12:06:19;99853.97;;;18.29;38.97
31044;BME280;17710;52.520;13.352;2023-03-25T12:08:52;99844.19;;;17.97;39.24
31044;BME280;17710;52.520;13.352;2023-03-25T12:11:27;99856.78;;;18.06;38.77
31044;BME280;17710;52.520;13.352;2023-03-25T12:14:11;99841.72;;;18.16;38.23
31044;BME280;17710;52.520;13.352;2023-03-25T12:16:49;99840.31;;;17.78;38.37
31044;BME280;17710;52.520;13.352;2023-03-25T12:19:25;99847.28;;;17.46;38.25
31044;BME280;17710;52.520;13.352;2023-03-25T12:22:03;99861.38;;;17.37;38.72
31044;BME280;17710;52.520;13.352;2023-03-25T12:24:51;99839.38;;;17.33;38.98
31044;BME280;17710;52.520;13.352;2023-03-25T12:27:33;99838.19;;;17.37;39.20
31044;BME280;17710;52.520;13.352;2023-03-25T12:30:15;99840.31;;;17.78;37.98
31044;BME280;17710;52.520;13.352;2023-03-25T12:32:48;99831.63;;;18.19;37.37
31044;BME280;17710;52.520;13.352;2023-03-25T12:35:27;99826.75;;;18.36;36.57
31044;BME280;17710;52.520;13.352;2023-03-25T12:38:15;99828.94;;;18.19;36.41
31044;BME280;17710;52.520;13.352;2023-03-25T12:41:05;99823.78;;;17.73;37.81
31044;BME280;17710;52.520;13.352;2023-03-25T12:43:43;99836.78;;;17.09;38.85
31044;BME280;17710;52.520;13.352;2023-03-25T12:46:36;99826.88;;;17.34;38.82
31044;BME280;17710;52.520;13.352;2023-03-25T12:49:16;99833.91;;;17.24;38.30
31044;BME280;17710;52.520;13.352;2023-03-25T12:51:53;99825.47;;;16.95;38.83
31044;BME280;17710;52.520;13.352;2023-03-25T12:54:39;99820.28;;;17.04;39.11
31044;BME280;17710;52.520;13.352;2023-03-25T12:57:17;99822.06;;;17.72;38.11
31044;BME280;17710;52.520;13.352;2023-03-25T13:00:02;99810.63;;;17.59;38.06
31044;BME280;17710;52.520;13.352;2023-03-25T13:05:36;99839.75;;;17.40;39.78
31044;BME280;17710;52.520;13.352;2023-03-25T13:08:07;99832.38;;;16.86;42.65
31044;BME280;17710;52.520;13.352;2023-03-25T13:10:38;99826.38;;;16.71;42.54
31044;BME280;17710;52.520;13.352;2023-03-25T13:13:11;99853.16;;;16.70;44.00